ITY1642 LIBR-LIML
Flight info
| Callsign | ITY1642 |
|---|---|
| Flight time | 1h 23m |
| Altitude | 18000 |
| Route | FASAN P92 BAR T415 OSDAX/N0445F340 DCT DIVKU DCT KUGIX/N0437F300 DCT LOMED DCT RUXOL DCT KALIK |
| Aircraft | A320/M-SDE3FGHIRWY/LB1 |
Departure
| Time | 2026-04-26 04:53 |
|---|---|
| Airport | Brindisi Airport (LIBR) |
Arrival
| Time | 2026-04-26 06:16 |
|---|---|
| Airport | Milano Linate Airport (LIML) |
| Time | Latitude | Longitude | Altitude | Speed | Heading |
|---|---|---|---|---|---|
| 2026-04-26 04:32 | 40.65848 | 17.94186 | 33 ft | 0 kts | 345° |
| 2026-04-26 04:43 | 40.65845 | 17.94187 | 33 ft | 2 kts | 345° |
| 2026-04-26 04:43 | 40.65829 | 17.94193 | 33 ft | 2 kts | 345° |
| 2026-04-26 04:43 | 40.65813 | 17.94199 | 32 ft | 2 kts | 344° |
| 2026-04-26 04:44 | 40.65797 | 17.94205 | 32 ft | 2 kts | 344° |
| 2026-04-26 04:44 | 40.65782 | 17.94211 | 31 ft | 2 kts | 345° |
| 2026-04-26 04:44 | 40.65766 | 17.94216 | 30 ft | 2 kts | 347° |
| 2026-04-26 04:44 | 40.65749 | 17.94220 | 31 ft | 2 kts | 30° |
| 2026-04-26 04:45 | 40.65745 | 17.94217 | 32 ft | 0 kts | 62° |
| 2026-04-26 04:46 | 40.65769 | 17.94258 | 33 ft | 12 kts | 51° |
| 2026-04-26 04:46 | 40.65826 | 17.94353 | 32 ft | 13 kts | 52° |
| 2026-04-26 04:46 | 40.65877 | 17.94441 | 32 ft | 11 kts | 53° |
| 2026-04-26 04:47 | 40.65923 | 17.94520 | 32 ft | 10 kts | 53° |
| 2026-04-26 04:47 | 40.65963 | 17.94590 | 32 ft | 9 kts | 53° |
| 2026-04-26 04:47 | 40.65995 | 17.94646 | 32 ft | 6 kts | 53° |
| 2026-04-26 04:47 | 40.66017 | 17.94685 | 33 ft | 5 kts | 53° |
| 2026-04-26 04:48 | 40.66126 | 17.94632 | 33 ft | 17 kts | 318° |
| 2026-04-26 04:48 | 40.66216 | 17.94523 | 32 ft | 18 kts | 317° |
| 2026-04-26 04:48 | 40.66311 | 17.94407 | 33 ft | 19 kts | 317° |
| 2026-04-26 04:49 | 40.66412 | 17.94282 | 33 ft | 20 kts | 316° |
| 2026-04-26 04:49 | 40.66519 | 17.94151 | 33 ft | 22 kts | 317° |
| 2026-04-26 04:49 | 40.66632 | 17.94013 | 33 ft | 23 kts | 317° |
| 2026-04-26 04:49 | 40.66751 | 17.93866 | 33 ft | 24 kts | 316° |
| 2026-04-26 04:50 | 40.66876 | 17.93713 | 33 ft | 25 kts | 317° |
| 2026-04-26 04:50 | 40.67006 | 17.93555 | 33 ft | 26 kts | 317° |
| 2026-04-26 04:50 | 40.67135 | 17.93398 | 33 ft | 25 kts | 317° |
| 2026-04-26 04:50 | 40.67266 | 17.93237 | 33 ft | 23 kts | 316° |
| 2026-04-26 04:51 | 40.67384 | 17.93091 | 33 ft | 24 kts | 317° |
| 2026-04-26 04:51 | 40.67509 | 17.92939 | 32 ft | 25 kts | 317° |
| 2026-04-26 04:51 | 40.67606 | 17.92821 | 33 ft | 14 kts | 317° |
| 2026-04-26 04:51 | 40.67644 | 17.92723 | 33 ft | 13 kts | 252° |
| 2026-04-26 04:52 | 40.67579 | 17.92638 | 33 ft | 14 kts | 211° |
| 2026-04-26 04:52 | 40.67484 | 17.92681 | 32 ft | 22 kts | 134° |
| 2026-04-26 04:52 | 40.67246 | 17.92972 | 34 ft | 81 kts | 137° |
| 2026-04-26 04:52 | 40.66675 | 17.93667 | 33 ft | 140 kts | 137° |
| 2026-04-26 04:53 | 40.65883 | 17.94625 | 330 ft | 159 kts | 139° |
| 2026-04-26 04:53 | 40.65056 | 17.95607 | 943 ft | 161 kts | 138° |
| 2026-04-26 04:53 | 40.64215 | 17.96594 | 1425 ft | 168 kts | 137° |
| 2026-04-26 04:53 | 40.63286 | 17.97687 | 1698 ft | 190 kts | 137° |
| 2026-04-26 04:54 | 40.62235 | 17.98924 | 1942 ft | 215 kts | 137° |
| 2026-04-26 04:54 | 40.61064 | 18.00321 | 2255 ft | 239 kts | 133° |
| 2026-04-26 04:54 | 40.60232 | 18.02273 | 2645 ft | 257 kts | 96° |
| 2026-04-26 04:54 | 40.60485 | 18.04579 | 3342 ft | 259 kts | 60° |
| 2026-04-26 04:55 | 40.61750 | 18.06250 | 4182 ft | 258 kts | 24° |
| 2026-04-26 04:55 | 40.63471 | 18.06614 | 5038 ft | 259 kts | 350° |
| 2026-04-26 04:55 | 40.65173 | 18.05728 | 5909 ft | 263 kts | 330° |
| 2026-04-26 04:55 | 40.66631 | 18.04258 | 6721 ft | 269 kts | 310° |
| 2026-04-26 04:56 | 40.67372 | 18.01980 | 7482 ft | 279 kts | 277° |
| 2026-04-26 04:56 | 40.67388 | 17.99404 | 8300 ft | 282 kts | 275° |
| 2026-04-26 04:56 | 40.67501 | 17.96819 | 9121 ft | 285 kts | 267° |
| 2026-04-26 04:56 | 40.66854 | 17.94350 | 9898 ft | 293 kts | 237° |
| 2026-04-26 04:57 | 40.65652 | 17.92166 | 10632 ft | 295 kts | 242° |
| 2026-04-26 04:57 | 40.65111 | 17.89602 | 11304 ft | 292 kts | 274° |
| 2026-04-26 04:57 | 40.65673 | 17.87074 | 11986 ft | 291 kts | 304° |
| 2026-04-26 04:57 | 40.67141 | 17.85256 | 12627 ft | 296 kts | 327° |
| 2026-04-26 04:58 | 40.68973 | 17.83801 | 12792 ft | 319 kts | 327° |
| 2026-04-26 04:58 | 40.70728 | 17.81859 | 12971 ft | 339 kts | 310° |
| 2026-04-26 04:58 | 40.71640 | 17.80115 | 13329 ft | 345 kts | 301° |
| 2026-04-26 04:58 | 40.72813 | 17.77329 | 13955 ft | 350 kts | 298° |
| 2026-04-26 04:59 | 40.73944 | 17.74462 | 14555 ft | 353 kts | 297° |
| 2026-04-26 04:59 | 40.75057 | 17.71564 | 15168 ft | 356 kts | 297° |
| 2026-04-26 04:59 | 40.76181 | 17.68638 | 15791 ft | 358 kts | 297° |
| 2026-04-26 04:59 | 40.77318 | 17.65702 | 16418 ft | 361 kts | 297° |
| 2026-04-26 05:00 | 40.78471 | 17.62755 | 17041 ft | 363 kts | 297° |
| 2026-04-26 05:00 | 40.79642 | 17.59787 | 17664 ft | 365 kts | 297° |
| 2026-04-26 05:00 | 40.80819 | 17.56814 | 18269 ft | 367 kts | 297° |
| 2026-04-26 05:00 | 40.82008 | 17.53808 | 18810 ft | 370 kts | 297° |
| 2026-04-26 05:01 | 40.83202 | 17.50787 | 19314 ft | 373 kts | 297° |
| 2026-04-26 05:01 | 40.84405 | 17.47737 | 19817 ft | 376 kts | 297° |
| 2026-04-26 05:01 | 40.85615 | 17.44667 | 20318 ft | 379 kts | 297° |
| 2026-04-26 05:01 | 40.86842 | 17.41570 | 20850 ft | 382 kts | 298° |
| 2026-04-26 05:02 | 40.88132 | 17.38489 | 21373 ft | 384 kts | 299° |
| 2026-04-26 05:02 | 40.89469 | 17.35424 | 21876 ft | 387 kts | 300° |
| 2026-04-26 05:02 | 40.90837 | 17.32339 | 22368 ft | 390 kts | 300° |
| 2026-04-26 05:02 | 40.92212 | 17.29243 | 22840 ft | 392 kts | 300° |
| 2026-04-26 05:03 | 40.93592 | 17.26114 | 23298 ft | 395 kts | 300° |
| 2026-04-26 05:03 | 40.94975 | 17.22955 | 23744 ft | 398 kts | 300° |
| 2026-04-26 05:03 | 40.96359 | 17.19769 | 24104 ft | 401 kts | 299° |
| 2026-04-26 05:03 | 40.97746 | 17.16561 | 24481 ft | 403 kts | 299° |
| 2026-04-26 05:04 | 40.99156 | 17.13286 | 24848 ft | 405 kts | 299° |
| 2026-04-26 05:04 | 41.00551 | 17.10031 | 25206 ft | 407 kts | 299° |
| 2026-04-26 05:04 | 41.01951 | 17.06764 | 25550 ft | 409 kts | 299° |
| 2026-04-26 05:04 | 41.03362 | 17.03481 | 25891 ft | 411 kts | 299° |
| 2026-04-26 05:05 | 41.04782 | 17.00177 | 26231 ft | 414 kts | 299° |
| 2026-04-26 05:05 | 41.06206 | 16.96860 | 26552 ft | 416 kts | 299° |
| 2026-04-26 05:05 | 41.07639 | 16.93518 | 26882 ft | 418 kts | 299° |
| 2026-04-26 05:05 | 41.09079 | 16.90157 | 27208 ft | 420 kts | 299° |
| 2026-04-26 05:06 | 41.10523 | 16.86780 | 27517 ft | 422 kts | 299° |
| 2026-04-26 05:06 | 41.11976 | 16.83385 | 27841 ft | 424 kts | 299° |
| 2026-04-26 05:06 | 41.13523 | 16.80054 | 28131 ft | 427 kts | 305° |
| 2026-04-26 05:06 | 41.15460 | 16.77051 | 28423 ft | 430 kts | 315° |
| 2026-04-26 05:07 | 41.17763 | 16.74505 | 28718 ft | 433 kts | 323° |
| 2026-04-26 05:07 | 41.20238 | 16.72207 | 29022 ft | 434 kts | 323° |
| 2026-04-26 05:07 | 41.22718 | 16.69904 | 29294 ft | 436 kts | 323° |
| 2026-04-26 05:07 | 41.25206 | 16.67590 | 29550 ft | 438 kts | 323° |
| 2026-04-26 05:08 | 41.27707 | 16.65251 | 29800 ft | 440 kts | 323° |
| 2026-04-26 05:08 | 41.30209 | 16.62903 | 30043 ft | 442 kts | 323° |
| 2026-04-26 05:08 | 41.32576 | 16.60300 | 30252 ft | 442 kts | 314° |
| 2026-04-26 05:08 | 41.34575 | 16.57203 | 30443 ft | 442 kts | 304° |
| 2026-04-26 05:09 | 41.36161 | 16.53703 | 30649 ft | 442 kts | 295° |
| 2026-04-26 05:09 | 41.37291 | 16.49909 | 30916 ft | 441 kts | 286° |
| 2026-04-26 05:09 | 41.38077 | 16.45972 | 31185 ft | 440 kts | 284° |
| 2026-04-26 05:09 | 41.38843 | 16.42033 | 31453 ft | 439 kts | 284° |
| 2026-04-26 05:10 | 41.39611 | 16.38098 | 31728 ft | 439 kts | 284° |
| 2026-04-26 05:10 | 41.40386 | 16.34112 | 32002 ft | 438 kts | 284° |
| 2026-04-26 05:10 | 41.41139 | 16.30234 | 32257 ft | 438 kts | 284° |
| 2026-04-26 05:10 | 41.41912 | 16.26256 | 32525 ft | 438 kts | 284° |
| 2026-04-26 05:11 | 41.42674 | 16.22330 | 32791 ft | 437 kts | 284° |
| 2026-04-26 05:11 | 41.43429 | 16.18404 | 33065 ft | 437 kts | 284° |
| 2026-04-26 05:11 | 41.44178 | 16.14480 | 33329 ft | 436 kts | 284° |
| 2026-04-26 05:11 | 41.44921 | 16.10564 | 33596 ft | 436 kts | 283° |
| 2026-04-26 05:12 | 41.45664 | 16.06656 | 33863 ft | 435 kts | 283° |
| 2026-04-26 05:12 | 41.46410 | 16.02734 | 34058 ft | 435 kts | 283° |
| 2026-04-26 05:12 | 41.47887 | 15.94968 | 34092 ft | 431 kts | 283° |
| 2026-04-26 05:13 | 41.49357 | 15.87222 | 34085 ft | 431 kts | 285° |
| 2026-04-26 05:13 | 41.51870 | 15.79987 | 34094 ft | 432 kts | 302° |
| 2026-04-26 05:14 | 41.55188 | 15.73300 | 34084 ft | 432 kts | 302° |
| 2026-04-26 05:14 | 41.58474 | 15.66597 | 34084 ft | 432 kts | 302° |
| 2026-04-26 05:15 | 41.61756 | 15.59878 | 34084 ft | 432 kts | 302° |
| 2026-04-26 05:15 | 41.65043 | 15.53148 | 34083 ft | 432 kts | 302° |
| 2026-04-26 05:16 | 41.68360 | 15.46366 | 34083 ft | 433 kts | 302° |
| 2026-04-26 05:16 | 41.71648 | 15.39627 | 34084 ft | 433 kts | 302° |
| 2026-04-26 05:17 | 41.74930 | 15.32871 | 34082 ft | 433 kts | 302° |
| 2026-04-26 05:17 | 41.78205 | 15.26109 | 34075 ft | 433 kts | 302° |
| 2026-04-26 05:18 | 41.81480 | 15.19343 | 34077 ft | 433 kts | 302° |
| 2026-04-26 05:18 | 41.84749 | 15.12573 | 34078 ft | 433 kts | 302° |
| 2026-04-26 05:19 | 41.88017 | 15.05792 | 34080 ft | 433 kts | 302° |
| 2026-04-26 05:19 | 41.91282 | 14.99002 | 34079 ft | 433 kts | 302° |
| 2026-04-26 05:20 | 41.94539 | 14.92211 | 34085 ft | 433 kts | 302° |
| 2026-04-26 05:20 | 41.97789 | 14.85407 | 34083 ft | 432 kts | 302° |
| 2026-04-26 05:21 | 42.01031 | 14.78601 | 34081 ft | 432 kts | 302° |
| 2026-04-26 05:21 | 42.04275 | 14.71786 | 34082 ft | 433 kts | 302° |
| 2026-04-26 05:22 | 42.07525 | 14.64972 | 34092 ft | 433 kts | 302° |
| 2026-04-26 05:22 | 42.10764 | 14.58144 | 34090 ft | 432 kts | 302° |
| 2026-04-26 05:23 | 42.13991 | 14.51311 | 34095 ft | 432 kts | 302° |
| 2026-04-26 05:23 | 42.17212 | 14.44486 | 34096 ft | 431 kts | 302° |
| 2026-04-26 05:24 | 42.20423 | 14.37659 | 34088 ft | 431 kts | 302° |
| 2026-04-26 05:24 | 42.23651 | 14.30790 | 34086 ft | 431 kts | 302° |
| 2026-04-26 05:25 | 42.26853 | 14.23959 | 34082 ft | 431 kts | 302° |
| 2026-04-26 05:25 | 42.30056 | 14.17119 | 34088 ft | 431 kts | 302° |
| 2026-04-26 05:26 | 42.33253 | 14.10285 | 34089 ft | 430 kts | 302° |
| 2026-04-26 05:26 | 42.36438 | 14.03443 | 34111 ft | 430 kts | 302° |
| 2026-04-26 05:27 | 42.39609 | 13.96609 | 34116 ft | 428 kts | 302° |
| 2026-04-26 05:27 | 42.42773 | 13.89781 | 34118 ft | 428 kts | 302° |
| 2026-04-26 05:28 | 42.45922 | 13.82951 | 34108 ft | 428 kts | 302° |
| 2026-04-26 05:28 | 42.49075 | 13.76114 | 34116 ft | 428 kts | 302° |
| 2026-04-26 05:29 | 42.52230 | 13.69268 | 34113 ft | 429 kts | 302° |
| 2026-04-26 05:29 | 42.55383 | 13.62402 | 34121 ft | 429 kts | 302° |
| 2026-04-26 05:30 | 42.58528 | 13.55533 | 34118 ft | 429 kts | 302° |
| 2026-04-26 05:30 | 42.61673 | 13.48656 | 34138 ft | 429 kts | 301° |
| 2026-04-26 05:31 | 42.64298 | 13.42897 | 34145 ft | 427 kts | 301° |
| 2026-04-26 05:31 | 42.67418 | 13.36040 | 34152 ft | 426 kts | 301° |
| 2026-04-26 05:32 | 42.70525 | 13.29190 | 34163 ft | 425 kts | 301° |
| 2026-04-26 05:32 | 42.73630 | 13.22352 | 34158 ft | 424 kts | 301° |
| 2026-04-26 05:33 | 42.76721 | 13.15521 | 34160 ft | 424 kts | 301° |
| 2026-04-26 05:33 | 42.79807 | 13.08679 | 34143 ft | 424 kts | 301° |
| 2026-04-26 05:34 | 42.82881 | 13.01835 | 34142 ft | 424 kts | 301° |
| 2026-04-26 05:34 | 42.85956 | 12.94978 | 34132 ft | 424 kts | 301° |
| 2026-04-26 05:35 | 42.89050 | 12.88068 | 34134 ft | 424 kts | 301° |
| 2026-04-26 05:35 | 42.92118 | 12.81197 | 34140 ft | 424 kts | 301° |
| 2026-04-26 05:36 | 42.95184 | 12.74315 | 34134 ft | 424 kts | 301° |
| 2026-04-26 05:36 | 42.98247 | 12.67416 | 34129 ft | 425 kts | 301° |
| 2026-04-26 05:37 | 43.01309 | 12.60509 | 34125 ft | 425 kts | 301° |
| 2026-04-26 05:37 | 43.04371 | 12.53601 | 34128 ft | 426 kts | 301° |
| 2026-04-26 05:38 | 43.07433 | 12.46666 | 34131 ft | 426 kts | 301° |
| 2026-04-26 05:38 | 43.10487 | 12.39736 | 34133 ft | 426 kts | 301° |
| 2026-04-26 05:39 | 43.13538 | 12.32788 | 34136 ft | 425 kts | 301° |
| 2026-04-26 05:39 | 43.16584 | 12.25839 | 34139 ft | 425 kts | 301° |
| 2026-04-26 05:40 | 43.19623 | 12.18894 | 34149 ft | 425 kts | 301° |
| 2026-04-26 05:40 | 43.22659 | 12.11939 | 34157 ft | 425 kts | 301° |
| 2026-04-26 05:41 | 43.25692 | 12.04983 | 34157 ft | 425 kts | 301° |
| 2026-04-26 05:41 | 43.28737 | 11.97971 | 34147 ft | 425 kts | 300° |
| 2026-04-26 05:42 | 43.31767 | 11.90974 | 34146 ft | 426 kts | 300° |
| 2026-04-26 05:42 | 43.34791 | 11.83965 | 34147 ft | 427 kts | 300° |
| 2026-04-26 05:43 | 43.37815 | 11.76953 | 34153 ft | 427 kts | 300° |
| 2026-04-26 05:43 | 43.40834 | 11.69932 | 34147 ft | 427 kts | 300° |
| 2026-04-26 05:44 | 43.43854 | 11.62896 | 34145 ft | 427 kts | 300° |
| 2026-04-26 05:44 | 43.46865 | 11.55853 | 34144 ft | 427 kts | 300° |
| 2026-04-26 05:45 | 43.49877 | 11.48801 | 34141 ft | 427 kts | 300° |
| 2026-04-26 05:45 | 43.52887 | 11.41745 | 34138 ft | 427 kts | 301° |
| 2026-04-26 05:46 | 43.56770 | 11.35594 | 34138 ft | 428 kts | 320° |
| 2026-04-26 05:46 | 43.61832 | 11.31261 | 34135 ft | 430 kts | 330° |
| 2026-04-26 05:47 | 43.67092 | 11.27318 | 34121 ft | 430 kts | 330° |
| 2026-04-26 05:47 | 43.72354 | 11.23359 | 34146 ft | 431 kts | 330° |
| 2026-04-26 05:48 | 43.77659 | 11.19351 | 34148 ft | 432 kts | 330° |
| 2026-04-26 05:48 | 43.82938 | 11.15355 | 34151 ft | 432 kts | 330° |
| 2026-04-26 05:49 | 43.90848 | 11.09365 | 34160 ft | 432 kts | 330° |
| 2026-04-26 05:50 | 43.96131 | 11.05371 | 34164 ft | 432 kts | 330° |
| 2026-04-26 05:50 | 44.00886 | 11.00403 | 34173 ft | 428 kts | 311° |
| 2026-04-26 05:51 | 44.04088 | 10.93512 | 34170 ft | 425 kts | 292° |
| 2026-04-26 05:51 | 44.05884 | 10.85693 | 34183 ft | 425 kts | 287° |
| 2026-04-26 05:52 | 44.07581 | 10.77815 | 34185 ft | 426 kts | 286° |
| 2026-04-26 05:52 | 44.09278 | 10.69903 | 33999 ft | 428 kts | 286° |
| 2026-04-26 05:52 | 44.10127 | 10.65940 | 33359 ft | 425 kts | 287° |
| 2026-04-26 05:53 | 44.10978 | 10.62023 | 32808 ft | 420 kts | 289° |
| 2026-04-26 05:53 | 44.12122 | 10.58316 | 32240 ft | 416 kts | 298° |
| 2026-04-26 05:53 | 44.13645 | 10.54905 | 31685 ft | 413 kts | 304° |
| 2026-04-26 05:53 | 44.15238 | 10.51605 | 31131 ft | 410 kts | 304° |
| 2026-04-26 05:54 | 44.16814 | 10.48314 | 30585 ft | 407 kts | 304° |
| 2026-04-26 05:54 | 44.18379 | 10.45037 | 30008 ft | 405 kts | 304° |
| 2026-04-26 05:54 | 44.19927 | 10.41791 | 29440 ft | 400 kts | 304° |
| 2026-04-26 05:54 | 44.21458 | 10.38574 | 28910 ft | 396 kts | 304° |
| 2026-04-26 05:55 | 44.22969 | 10.35395 | 28389 ft | 392 kts | 305° |
| 2026-04-26 05:55 | 44.24468 | 10.32244 | 27874 ft | 388 kts | 305° |
| 2026-04-26 05:55 | 44.25974 | 10.29075 | 27346 ft | 385 kts | 305° |
| 2026-04-26 05:55 | 44.27442 | 10.25980 | 26853 ft | 381 kts | 305° |
| 2026-04-26 05:56 | 44.28902 | 10.22903 | 26359 ft | 379 kts | 305° |
| 2026-04-26 05:56 | 44.30350 | 10.19847 | 25899 ft | 376 kts | 305° |
| 2026-04-26 05:56 | 44.31786 | 10.16818 | 25442 ft | 373 kts | 305° |
| 2026-04-26 05:56 | 44.33208 | 10.13814 | 24989 ft | 370 kts | 305° |
| 2026-04-26 05:57 | 44.34617 | 10.10825 | 24532 ft | 367 kts | 305° |
| 2026-04-26 05:57 | 44.36016 | 10.07852 | 24086 ft | 365 kts | 305° |
| 2026-04-26 05:57 | 44.37406 | 10.04907 | 23630 ft | 363 kts | 305° |
| 2026-04-26 05:57 | 44.38792 | 10.01969 | 23151 ft | 360 kts | 305° |
| 2026-04-26 05:58 | 44.40159 | 9.99060 | 22712 ft | 356 kts | 305° |
| 2026-04-26 05:58 | 44.41511 | 9.96183 | 22254 ft | 353 kts | 305° |
| 2026-04-26 05:58 | 44.42854 | 9.93321 | 21820 ft | 350 kts | 305° |
| 2026-04-26 05:58 | 44.44180 | 9.90490 | 21382 ft | 347 kts | 305° |
| 2026-04-26 05:59 | 44.45498 | 9.87673 | 20943 ft | 344 kts | 305° |
| 2026-04-26 05:59 | 44.46799 | 9.84889 | 20504 ft | 341 kts | 305° |
| 2026-04-26 05:59 | 44.48123 | 9.82135 | 20036 ft | 340 kts | 307° |
| 2026-04-26 05:59 | 44.49478 | 9.79420 | 19608 ft | 339 kts | 307° |
| 2026-04-26 06:00 | 44.50838 | 9.76729 | 19169 ft | 338 kts | 307° |
| 2026-04-26 06:00 | 44.52195 | 9.74045 | 18729 ft | 337 kts | 307° |
| 2026-04-26 06:00 | 44.53546 | 9.71360 | 18271 ft | 337 kts | 307° |
| 2026-04-26 06:00 | 44.54888 | 9.68674 | 17808 ft | 336 kts | 307° |
| 2026-04-26 06:01 | 44.56223 | 9.65992 | 17376 ft | 334 kts | 307° |
| 2026-04-26 06:01 | 44.57549 | 9.63327 | 16946 ft | 333 kts | 307° |
| 2026-04-26 06:01 | 44.58889 | 9.60633 | 16516 ft | 332 kts | 307° |
| 2026-04-26 06:01 | 44.60191 | 9.58012 | 16087 ft | 331 kts | 307° |
| 2026-04-26 06:02 | 44.61082 | 9.56218 | 15804 ft | 331 kts | 307° |
| 2026-04-26 06:02 | 44.62390 | 9.53576 | 15499 ft | 327 kts | 307° |
| 2026-04-26 06:02 | 44.63666 | 9.50992 | 15378 ft | 317 kts | 307° |
| 2026-04-26 06:02 | 44.64906 | 9.48470 | 15164 ft | 311 kts | 306° |
| 2026-04-26 06:03 | 44.66134 | 9.45970 | 14708 ft | 316 kts | 306° |
| 2026-04-26 06:03 | 44.67386 | 9.43426 | 14396 ft | 313 kts | 306° |
| 2026-04-26 06:03 | 44.68619 | 9.40925 | 14136 ft | 309 kts | 306° |
| 2026-04-26 06:03 | 44.69865 | 9.38526 | 14010 ft | 298 kts | 314° |
| 2026-04-26 06:04 | 44.71414 | 9.36683 | 13891 ft | 287 kts | 330° |
| 2026-04-26 06:04 | 44.73203 | 9.35548 | 13614 ft | 279 kts | 346° |
| 2026-04-26 06:04 | 44.75101 | 9.35151 | 13064 ft | 275 kts | 356° |
| 2026-04-26 06:04 | 44.77005 | 9.34946 | 12508 ft | 274 kts | 356° |
| 2026-04-26 06:05 | 44.78905 | 9.34758 | 11933 ft | 272 kts | 356° |
| 2026-04-26 06:05 | 44.80788 | 9.34575 | 11471 ft | 272 kts | 356° |
| 2026-04-26 06:05 | 44.82668 | 9.34391 | 11162 ft | 270 kts | 356° |
| 2026-04-26 06:05 | 44.84537 | 9.34198 | 10860 ft | 268 kts | 356° |
| 2026-04-26 06:06 | 44.86396 | 9.33997 | 10512 ft | 268 kts | 356° |
| 2026-04-26 06:06 | 44.88256 | 9.33793 | 10173 ft | 268 kts | 356° |
| 2026-04-26 06:06 | 44.90129 | 9.33587 | 9855 ft | 266 kts | 356° |
| 2026-04-26 06:06 | 44.91969 | 9.33388 | 9505 ft | 264 kts | 356° |
| 2026-04-26 06:07 | 44.93775 | 9.33192 | 9152 ft | 263 kts | 356° |
| 2026-04-26 06:07 | 44.95622 | 9.32991 | 8765 ft | 263 kts | 356° |
| 2026-04-26 06:07 | 44.97417 | 9.32794 | 8587 ft | 254 kts | 356° |
| 2026-04-26 06:07 | 44.99158 | 9.32600 | 8340 ft | 249 kts | 356° |
| 2026-04-26 06:08 | 45.00878 | 9.32411 | 8026 ft | 246 kts | 355° |
| 2026-04-26 06:08 | 45.02574 | 9.32229 | 7728 ft | 243 kts | 356° |
| 2026-04-26 06:08 | 45.04245 | 9.32052 | 7450 ft | 239 kts | 356° |
| 2026-04-26 06:08 | 45.05894 | 9.31857 | 7171 ft | 236 kts | 355° |
| 2026-04-26 06:09 | 45.07525 | 9.31667 | 6894 ft | 234 kts | 355° |
| 2026-04-26 06:09 | 45.09141 | 9.31493 | 6620 ft | 233 kts | 356° |
| 2026-04-26 06:09 | 45.10759 | 9.31321 | 6305 ft | 232 kts | 356° |
| 2026-04-26 06:09 | 45.12366 | 9.31150 | 5993 ft | 232 kts | 356° |
| 2026-04-26 06:10 | 45.13967 | 9.30979 | 5708 ft | 229 kts | 355° |
| 2026-04-26 06:10 | 45.15552 | 9.30810 | 5438 ft | 227 kts | 355° |
| 2026-04-26 06:10 | 45.17116 | 9.30644 | 5167 ft | 224 kts | 355° |
| 2026-04-26 06:10 | 45.18661 | 9.30479 | 4907 ft | 222 kts | 355° |
| 2026-04-26 06:11 | 45.20176 | 9.30317 | 4779 ft | 212 kts | 355° |
| 2026-04-26 06:11 | 45.21629 | 9.30162 | 4560 ft | 208 kts | 355° |
| 2026-04-26 06:11 | 45.23060 | 9.30009 | 4292 ft | 205 kts | 355° |
| 2026-04-26 06:11 | 45.24467 | 9.29859 | 4036 ft | 200 kts | 355° |
| 2026-04-26 06:12 | 45.25855 | 9.29710 | 3767 ft | 196 kts | 355° |
| 2026-04-26 06:12 | 45.27185 | 9.29568 | 3519 ft | 192 kts | 355° |
| 2026-04-26 06:12 | 45.28522 | 9.29424 | 3263 ft | 188 kts | 354° |
| 2026-04-26 06:12 | 45.29818 | 9.29286 | 3011 ft | 185 kts | 354° |
| 2026-04-26 06:13 | 45.31091 | 9.29149 | 2777 ft | 182 kts | 354° |
| 2026-04-26 06:13 | 45.32321 | 9.29018 | 2528 ft | 171 kts | 354° |
| 2026-04-26 06:13 | 45.33448 | 9.28897 | 2327 ft | 156 kts | 354° |
| 2026-04-26 06:13 | 45.34506 | 9.28784 | 2121 ft | 150 kts | 353° |
| 2026-04-26 06:14 | 45.35533 | 9.28673 | 1909 ft | 147 kts | 352° |
| 2026-04-26 06:14 | 45.36564 | 9.28562 | 1716 ft | 147 kts | 352° |
| 2026-04-26 06:14 | 45.37576 | 9.28453 | 1514 ft | 147 kts | 353° |
| 2026-04-26 06:14 | 45.38591 | 9.28344 | 1320 ft | 146 kts | 353° |
| 2026-04-26 06:15 | 45.39601 | 9.28235 | 1125 ft | 145 kts | 353° |
| 2026-04-26 06:15 | 45.40598 | 9.28128 | 938 ft | 143 kts | 355° |
| 2026-04-26 06:15 | 45.41584 | 9.28022 | 750 ft | 142 kts | 355° |
| 2026-04-26 06:15 | 45.42565 | 9.27916 | 565 ft | 141 kts | 354° |
| 2026-04-26 06:16 | 45.43540 | 9.27811 | 378 ft | 140 kts | 355° |
| 2026-04-26 06:16 | 45.44412 | 9.27716 | 363 ft | 94 kts | 356° |
| 2026-04-26 06:16 | 45.44790 | 9.27678 | 359 ft | 27 kts | 355° |
| 2026-04-26 06:16 | 45.44978 | 9.27656 | 360 ft | 27 kts | 355° |
| 2026-04-26 06:17 | 45.45172 | 9.27633 | 360 ft | 28 kts | 355° |
| 2026-04-26 06:17 | 45.45324 | 9.27675 | 365 ft | 20 kts | 31° |
| 2026-04-26 06:17 | 45.45440 | 9.27767 | 362 ft | 17 kts | 53° |
| 2026-04-26 06:17 | 45.45541 | 9.27815 | 365 ft | 16 kts | 0° |
| 2026-04-26 06:18 | 45.45651 | 9.27817 | 365 ft | 16 kts | 0° |
| 2026-04-26 06:18 | 45.45769 | 9.27819 | 363 ft | 18 kts | 0° |
| 2026-04-26 06:18 | 45.45876 | 9.27821 | 363 ft | 7 kts | 4° |
| 2026-04-26 06:18 | 45.45906 | 9.27858 | 366 ft | 5 kts | 76° |
| 2026-04-26 06:19 | 45.45915 | 9.27900 | 368 ft | 4 kts | 52° |
| 2026-04-26 06:19 | 45.45933 | 9.27906 | 363 ft | 2 kts | 0° |
| 2026-04-26 06:19 | 45.45945 | 9.27906 | 363 ft | 1 kts | 0° |
| 2026-04-26 06:19 | 45.45972 | 9.27906 | 363 ft | 4 kts | 0° |
| 2026-04-26 06:20 | 45.45977 | 9.27906 | 363 ft | 0 kts | 0° |